createdAt,value
2023-11-03T00:01:17.547Z,97868.44
2023-11-03T00:03:44.903Z,97907.28
2023-11-03T00:06:12.366Z,97920.78
2023-11-03T00:08:39.622Z,97903.06
2023-11-03T00:11:07.639Z,97882.66
2023-11-03T00:13:35.529Z,97879.44
2023-11-03T00:16:03.696Z,97872.41
2023-11-03T00:18:32.536Z,97863.53
2023-11-03T00:21:01.666Z,97847.63
2023-11-03T00:23:28.933Z,97827.34
2023-11-03T00:25:56.997Z,97801.81
2023-11-03T00:28:24.636Z,97784.13
2023-11-03T00:30:53.042Z,97769.19
2023-11-03T00:33:21.304Z,97767.88
2023-11-03T00:35:48.707Z,97779.69
2023-11-03T00:38:17.185Z,97769.25
2023-11-03T00:40:44.825Z,97767.53
2023-11-03T00:43:12.286Z,97778.13
2023-11-03T00:45:39.659Z,97753.72
2023-11-03T00:48:07.509Z,97729.81
2023-11-03T00:50:34.756Z,97723.28
2023-11-03T00:53:02.050Z,97726.53
2023-11-03T00:55:29.287Z,97733.78
2023-11-03T00:57:56.748Z,97743.69
2023-11-03T01:00:26.807Z,97750.34
2023-11-03T01:02:54.166Z,97760.56
2023-11-03T01:05:23.364Z,97750.44
2023-11-03T01:07:50.900Z,97757.66
2023-11-03T01:10:18.265Z,97743.03
2023-11-03T01:12:51.381Z,97714.16
2023-11-03T01:15:20.486Z,97706.22
2023-11-03T01:17:51.700Z,97698.94
2023-11-03T01:20:29.278Z,97705.56
2023-11-03T01:22:57.311Z,97712.94
2023-11-03T01:25:24.556Z,97727.66
2023-11-03T01:27:53.231Z,97726.94
2023-11-03T01:30:21.914Z,97725.53
2023-11-03T01:32:54.295Z,97721.09
2023-11-03T01:35:22.846Z,97710.19
2023-11-03T01:37:50.317Z,97702.31
2023-11-03T01:40:17.589Z,97708.75
2023-11-03T01:42:45.122Z,97684.31
2023-11-03T01:45:12.802Z,97654.09
2023-11-03T01:47:40.021Z,97650.09
2023-11-03T01:50:07.778Z,97645.22
2023-11-03T01:52:36.375Z,97643.66
2023-11-03T01:55:04.262Z,97651.41
2023-11-03T01:57:31.989Z,97654.09
2023-11-03T01:59:59.422Z,97649.72
2023-11-03T02:02:30.297Z,97646.59
2023-11-03T02:04:57.500Z,97653.97
2023-11-03T02:07:31.401Z,97644.50
2023-11-03T02:09:59.640Z,97648.34
2023-11-03T02:12:27.492Z,97660.84
2023-11-03T02:14:54.699Z,97662.81
2023-11-03T02:17:22.983Z,97676.38
2023-11-03T02:19:50.420Z,97685.81
2023-11-03T02:22:17.686Z,97689.59
2023-11-03T02:24:45.035Z,97691.16
2023-11-03T02:27:12.980Z,97681.84
2023-11-03T02:29:40.626Z,97688.03
2023-11-03T02:32:07.982Z,97713.91
2023-11-03T02:34:36.756Z,97729.69
2023-11-03T02:37:04.803Z,97730.13
2023-11-03T02:39:32.692Z,97731.66
2023-11-03T02:42:00.961Z,97691.94
2023-11-03T02:44:28.196Z,97696.91
2023-11-03T02:46:58.708Z,97693.91
2023-11-03T02:49:26.086Z,97677.66
2023-11-03T02:51:54.237Z,97656.84
2023-11-03T02:54:21.444Z,97652.91
2023-11-03T02:56:48.873Z,97648.56
2023-11-03T02:59:16.346Z,97644.69
2023-11-03T03:01:44.662Z,97628.34
2023-11-03T03:04:11.967Z,97624.09
2023-11-03T03:06:43.224Z,97619.75
2023-11-03T03:09:11.084Z,97623.84
2023-11-03T03:11:38.393Z,97634.00
2023-11-03T03:14:05.809Z,97627.69
2023-11-03T03:16:33.149Z,97616.16
2023-11-03T03:19:01.035Z,97613.63
2023-11-03T03:21:28.319Z,97598.81
2023-11-03T03:23:55.573Z,97596.69
2023-11-03T03:26:24.194Z,97568.03
2023-11-03T03:28:51.579Z,97566.69
2023-11-03T03:31:19.192Z,97568.38
2023-11-03T03:33:48.519Z,97568.22
2023-11-03T03:36:17.082Z,97555.41
2023-11-03T03:38:44.496Z,97557.34
2023-11-03T03:41:13.032Z,97551.03
2023-11-03T03:43:40.606Z,97546.09
2023-11-03T03:46:08.090Z,97541.41
2023-11-03T03:48:40.776Z,97550.97
2023-11-03T03:51:09.106Z,97546.47
2023-11-03T03:53:37.170Z,97548.63
2023-11-03T03:56:04.787Z,97555.09
2023-11-03T03:58:32.251Z,97542.97
2023-11-03T04:00:59.742Z,97545.97
2023-11-03T04:03:26.933Z,97552.44
2023-11-03T04:05:54.227Z,97550.69
2023-11-03T04:08:21.607Z,97544.72
2023-11-03T04:10:48.926Z,97542.44
2023-11-03T04:13:16.179Z,97537.97
2023-11-03T04:15:43.544Z,97536.66
2023-11-03T04:18:10.919Z,97527.66
2023-11-03T04:20:39.902Z,97541.19
2023-11-03T04:23:07.532Z,97529.53
2023-11-03T04:25:34.765Z,97529.81
2023-11-03T04:28:02.014Z,97522.66
2023-11-03T04:30:29.231Z,97519.28
2023-11-03T04:32:56.418Z,97519.13
2023-11-03T04:35:23.637Z,97516.06
2023-11-03T04:37:51.237Z,97503.56
2023-11-03T04:40:20.868Z,97498.16
2023-11-03T04:42:48.649Z,97503.63
2023-11-03T04:45:17.022Z,97509.38
2023-11-03T04:47:44.707Z,97504.41
2023-11-03T04:50:12.304Z,97488.41
2023-11-03T04:52:39.781Z,97498.09
2023-11-03T04:55:10.625Z,97496.31
2023-11-03T04:57:37.884Z,97497.78
2023-11-03T05:00:10.354Z,97487.25
2023-11-03T05:02:37.860Z,97490.50
2023-11-03T05:05:08.646Z,97483.34
2023-11-03T05:07:39.835Z,97483.06
2023-11-03T05:10:07.639Z,97479.69
2023-11-03T05:12:36.742Z,97482.97
2023-11-03T05:15:04.604Z,97489.25
2023-11-03T05:17:32.175Z,97481.25
2023-11-03T05:19:59.319Z,97482.09
2023-11-03T05:22:26.517Z,97465.13
2023-11-03T05:24:54.254Z,97473.78
2023-11-03T05:27:21.644Z,97480.41
2023-11-03T05:29:48.865Z,97484.03
2023-11-03T05:32:16.847Z,97490.63
2023-11-03T05:34:44.141Z,97496.81
2023-11-03T05:37:12.285Z,97498.38
2023-11-03T05:39:39.644Z,97487.19
2023-11-03T05:42:06.958Z,97487.41
2023-11-03T05:44:34.677Z,97481.84
2023-11-03T05:47:02.236Z,97485.63
2023-11-03T05:49:29.613Z,97478.00
2023-11-03T05:51:57.225Z,97489.38
2023-11-03T05:54:24.813Z,97481.50
2023-11-03T05:56:52.108Z,97491.91
2023-11-03T05:59:19.319Z,97486.00
2023-11-03T06:01:46.583Z,97498.50
2023-11-03T06:04:16.008Z,97500.69
2023-11-03T06:06:43.420Z,97486.66
2023-11-03T06:09:12.979Z,97491.75
2023-11-03T06:11:40.453Z,97498.91
2023-11-03T06:14:07.791Z,97498.91
2023-11-03T06:16:35.995Z,97492.41
2023-11-03T06:19:03.398Z,97505.66
2023-11-03T06:21:30.720Z,97506.50
2023-11-03T06:23:57.968Z,97502.59
2023-11-03T06:26:25.186Z,97493.31
2023-11-03T06:28:53.873Z,97493.16
2023-11-03T06:31:21.257Z,97500.75
2023-11-03T06:33:48.700Z,97496.31
2023-11-03T06:36:16.715Z,97499.22
2023-11-03T06:38:44.312Z,97501.22
2023-11-03T06:41:12.498Z,97503.78
2023-11-03T06:43:42.171Z,97509.38
2023-11-03T06:46:10.558Z,97511.34
2023-11-03T06:48:38.345Z,97502.34
2023-11-03T06:51:12.454Z,97499.69
2023-11-03T06:53:39.778Z,97503.78
2023-11-03T06:56:07.290Z,97499.03
2023-11-03T06:58:34.685Z,97502.13
2023-11-03T07:01:02.036Z,97509.34
2023-11-03T07:03:29.451Z,97509.22
2023-11-03T07:05:56.956Z,97517.16
2023-11-03T07:08:24.417Z,97521.06
2023-11-03T07:10:52.029Z,97516.25
2023-11-03T07:13:19.305Z,97515.91
2023-11-03T07:15:46.785Z,97521.50
2023-11-03T07:18:14.131Z,97518.53
2023-11-03T07:20:41.809Z,97531.34
2023-11-03T07:23:09.194Z,97537.53
2023-11-03T07:25:36.459Z,97546.28
2023-11-03T07:28:03.837Z,97563.22
2023-11-03T07:30:31.137Z,97563.75
2023-11-03T07:32:59.107Z,97564.38
2023-11-03T07:35:26.440Z,97580.84
2023-11-03T07:37:53.689Z,97584.19
2023-11-03T07:40:21.121Z,97592.81
2023-11-03T07:42:48.508Z,97597.81
2023-11-03T07:45:17.454Z,97597.75
2023-11-03T07:47:44.867Z,97598.72
2023-11-03T07:50:12.866Z,97591.31
2023-11-03T07:52:40.228Z,97595.44
2023-11-03T07:55:07.898Z,97594.84
2023-11-03T07:57:35.250Z,97596.91
2023-11-03T08:00:12.225Z,97596.19
2023-11-03T08:02:42.688Z,97600.56
2023-11-03T08:05:11.112Z,97596.91
2023-11-03T08:07:38.584Z,97597.28
2023-11-03T08:10:06.134Z,97593.53
2023-11-03T08:12:36.833Z,97607.81
2023-11-03T08:15:13.107Z,97616.88
2023-11-03T08:17:45.560Z,97619.34
2023-11-03T08:20:16.832Z,97632.31
2023-11-03T08:22:44.405Z,97633.72
2023-11-03T08:25:13.278Z,97636.91
2023-11-03T08:27:40.680Z,97643.69
2023-11-03T08:30:10.039Z,97644.78
2023-11-03T08:32:37.829Z,97651.56
2023-11-03T08:35:06.924Z,97652.19
2023-11-03T08:37:34.536Z,97654.66
2023-11-03T08:40:03.001Z,97655.84
2023-11-03T08:42:31.653Z,97655.25
2023-11-03T08:45:02.768Z,97652.34
2023-11-03T08:47:34.675Z,97665.41
2023-11-03T08:50:03.174Z,97660.69
2023-11-03T08:52:32.528Z,97653.78
2023-11-03T08:55:01.315Z,97660.09
2023-11-03T08:57:36.650Z,97665.03
2023-11-03T09:00:17.328Z,97667.63
2023-11-03T09:02:48.520Z,97677.06
2023-11-03T09:05:16.082Z,97683.22
2023-11-03T09:07:44.400Z,97687.81
2023-11-03T09:10:12.904Z,97691.81
2023-11-03T09:12:42.153Z,97687.25
2023-11-03T09:15:09.848Z,97687.59
2023-11-03T09:17:37.840Z,97683.94
2023-11-03T09:20:08.915Z,97680.69
2023-11-03T09:22:38.838Z,97690.25
2023-11-03T09:25:07.576Z,97690.63
2023-11-03T09:27:35.306Z,97694.13
2023-11-03T09:30:06.404Z,97687.97
2023-11-03T09:32:34.369Z,97685.28
2023-11-03T09:35:02.134Z,97691.47
2023-11-03T09:37:29.782Z,97688.91
2023-11-03T09:39:58.793Z,97690.41
2023-11-03T09:42:26.086Z,97683.97
2023-11-03T09:44:54.385Z,97686.00
2023-11-03T09:47:21.771Z,97685.53
2023-11-03T09:49:49.203Z,97689.41
2023-11-03T09:52:16.674Z,97697.06
2023-11-03T09:54:44.538Z,97703.69
2023-11-03T09:57:13.041Z,97702.84
2023-11-03T09:59:40.967Z,97706.72
2023-11-03T10:02:20.005Z,97711.84
2023-11-03T10:04:47.654Z,97719.22
2023-11-03T10:07:15.124Z,97718.13
2023-11-03T10:09:46.439Z,97724.09
2023-11-03T10:12:19.268Z,97733.53
2023-11-03T10:14:49.899Z,97738.34
2023-11-03T10:17:18.185Z,97741.41
2023-11-03T10:19:46.999Z,97738.84
2023-11-03T10:22:14.362Z,97742.38
2023-11-03T10:24:41.912Z,97754.47
2023-11-03T10:27:13.260Z,97759.78
2023-11-03T10:29:41.388Z,97766.22
2023-11-03T10:32:10.485Z,97767.13
2023-11-03T10:34:38.912Z,97771.03
2023-11-03T10:37:07.053Z,97764.97
2023-11-03T10:39:34.461Z,97774.38
2023-11-03T10:42:03.697Z,97768.94
2023-11-03T10:44:31.811Z,97768.72
2023-11-03T10:47:11.328Z,97780.69
2023-11-03T10:49:39.397Z,97786.53
2023-11-03T10:52:11.871Z,97790.25
2023-11-03T10:55:05.050Z,97792.44
2023-11-03T10:57:39.744Z,97805.03
2023-11-03T11:00:18.659Z,97803.81
2023-11-03T11:03:04.407Z,97805.13
2023-11-03T11:05:39.497Z,97808.25
2023-11-03T11:08:08.433Z,97821.84
2023-11-03T11:10:36.439Z,97844.38
2023-11-03T11:13:06.004Z,97855.13
2023-11-03T11:15:33.305Z,97873.84
2023-11-03T11:18:30.956Z,97888.13
2023-11-03T11:21:07.034Z,97901.56
2023-11-03T11:23:39.475Z,97919.53
2023-11-03T11:28:53.992Z,97943.25
2023-11-03T11:31:25.406Z,97956.88
2023-11-03T11:34:04.214Z,97949.84
2023-11-03T11:36:33.262Z,97949.72
2023-11-03T11:39:02.149Z,97970.56
2023-11-03T11:41:32.190Z,97970.78
2023-11-03T11:44:01.175Z,97983.03
2023-11-03T11:46:32.566Z,98002.84
2023-11-03T11:49:05.666Z,97994.09
2023-11-03T11:51:34.877Z,98001.56
2023-11-03T11:54:03.336Z,98012.16
2023-11-03T11:56:30.612Z,98018.16
2023-11-03T11:58:58.553Z,98023.66
2023-11-03T12:01:25.835Z,98031.72
2023-11-03T12:03:53.785Z,98022.41
2023-11-03T12:06:21.324Z,98030.94
2023-11-03T12:08:48.689Z,98035.38
2023-11-03T12:11:21.845Z,98043.38
2023-11-03T12:13:49.025Z,98038.44
2023-11-03T12:16:16.263Z,98046.94
2023-11-03T12:18:43.733Z,98054.44
2023-11-03T12:21:29.014Z,98048.81
2023-11-03T12:24:00.015Z,98057.78
2023-11-03T12:26:27.909Z,98045.84
2023-11-03T12:29:16.955Z,98042.00
2023-11-03T12:31:44.404Z,98033.88
2023-11-03T12:34:15.055Z,98041.06
2023-11-03T12:36:42.520Z,98039.41
2023-11-03T12:39:12.300Z,98054.81
2023-11-03T12:42:23.931Z,98051.31
2023-11-03T12:44:54.137Z,98048.63
2023-11-03T12:47:40.466Z,98042.31
2023-11-03T12:50:15.092Z,98054.38
2023-11-03T12:52:42.356Z,98064.09
2023-11-03T12:55:10.245Z,98058.31
2023-11-03T12:57:38.146Z,98042.06
2023-11-03T13:00:08.888Z,98048.63
2023-11-03T13:02:36.376Z,98042.44
2023-11-03T13:05:05.311Z,98046.09
2023-11-03T13:07:32.922Z,98056.19
2023-11-03T13:10:00.315Z,98052.66
2023-11-03T13:12:29.704Z,98060.66
2023-11-03T13:14:59.109Z,98053.97
2023-11-03T13:17:26.296Z,98059.19
2023-11-03T13:19:55.130Z,98053.78
2023-11-03T13:22:22.393Z,98058.84
2023-11-03T13:24:49.634Z,98061.78
2023-11-03T13:27:17.409Z,98060.09
2023-11-03T13:29:44.644Z,98067.72
2023-11-03T13:32:12.338Z,98061.78
2023-11-03T13:34:42.673Z,98057.28
2023-11-03T13:37:13.114Z,98066.88
2023-11-03T13:39:40.492Z,98070.19
2023-11-03T13:42:08.737Z,98082.19
2023-11-03T13:44:37.323Z,98085.84
2023-11-03T13:47:04.699Z,98093.72
2023-11-03T13:49:39.947Z,98089.22
2023-11-03T13:52:08.856Z,98094.47
2023-11-03T13:54:36.035Z,98092.03
2023-11-03T13:57:03.641Z,98090.06
2023-11-03T13:59:30.812Z,98099.91
2023-11-03T14:01:58.493Z,98105.63
2023-11-03T14:04:28.163Z,98116.47
2023-11-03T14:06:55.472Z,98119.59
2023-11-03T14:09:26.409Z,98122.00
2023-11-03T14:11:56.710Z,98123.25
2023-11-03T14:14:26.124Z,98125.41
2023-11-03T14:16:53.470Z,98126.03
2023-11-03T14:19:20.741Z,98136.00
2023-11-03T14:21:50.877Z,98143.88
2023-11-03T14:24:18.178Z,98149.13
2023-11-03T14:26:46.986Z,98158.81
2023-11-03T14:29:17.613Z,98163.66
2023-11-03T14:31:45.511Z,98162.09
2023-11-03T14:34:30.524Z,98164.28
2023-11-03T14:36:57.853Z,98175.41
2023-11-03T14:39:25.344Z,98186.47
2023-11-03T14:41:55.009Z,98190.56
2023-11-03T14:44:28.841Z,98199.75
2023-11-03T14:47:01.826Z,98202.78
2023-11-03T14:49:29.091Z,98205.91
2023-11-03T14:52:14.565Z,98197.16
2023-11-03T14:54:47.246Z,98201.78
2023-11-03T14:57:19.031Z,98204.69
2023-11-03T14:59:46.271Z,98211.31
2023-11-03T15:02:13.642Z,98212.28
2023-11-03T15:04:40.939Z,98212.19
2023-11-03T15:07:09.583Z,98220.72
2023-11-03T15:09:38.378Z,98214.03
2023-11-03T15:12:05.974Z,98208.47
2023-11-03T15:14:33.297Z,98218.09
2023-11-03T15:17:00.517Z,98207.41
2023-11-03T15:19:32.550Z,98210.41
2023-11-03T15:22:07.847Z,98218.22
2023-11-03T15:24:35.178Z,98227.16
2023-11-03T15:27:02.444Z,98224.72
2023-11-03T15:29:31.117Z,98227.28
2023-11-03T15:32:04.626Z,98227.75
2023-11-03T15:34:34.033Z,98231.28
2023-11-03T15:37:01.701Z,98237.78
2023-11-03T15:39:33.176Z,98247.97
2023-11-03T15:42:01.699Z,98250.63
2023-11-03T15:44:31.280Z,98260.09
2023-11-03T15:46:58.736Z,98262.78
2023-11-03T15:49:30.570Z,98262.66
2023-11-03T15:51:59.471Z,98263.63
2023-11-03T15:54:29.895Z,98271.75
2023-11-03T15:57:01.578Z,98274.00
2023-11-03T15:59:28.922Z,98269.63
2023-11-03T16:01:56.104Z,98268.03
2023-11-03T16:04:25.298Z,98272.59
2023-11-03T16:06:52.931Z,98276.69
2023-11-03T16:09:22.776Z,98282.56
2023-11-03T16:11:52.551Z,98286.38
2023-11-03T16:14:19.885Z,98273.38
2023-11-03T16:16:47.080Z,98278.81
2023-11-03T16:19:14.720Z,98286.81
2023-11-03T16:21:42.414Z,98285.34
2023-11-03T16:24:10.734Z,98294.81
2023-11-03T16:26:38.021Z,98299.53
2023-11-03T16:29:07.231Z,98311.38
2023-11-03T16:31:34.435Z,98310.19
2023-11-03T16:34:02.821Z,98315.63
2023-11-03T16:36:30.529Z,98312.84
2023-11-03T16:38:58.325Z,98325.75
2023-11-03T16:41:28.111Z,98333.44
2023-11-03T16:43:55.483Z,98325.75
2023-11-03T16:46:28.203Z,98328.50
2023-11-03T16:48:55.662Z,98328.50
2023-11-03T16:51:34.377Z,98336.78
2023-11-03T16:54:01.874Z,98336.34
2023-11-03T16:56:29.412Z,98351.19
2023-11-03T16:58:56.721Z,98347.91
2023-11-03T17:01:24.468Z,98363.28
2023-11-03T17:03:52.184Z,98370.63
2023-11-03T17:06:19.596Z,98376.47
2023-11-03T17:08:50.811Z,98379.78
2023-11-03T17:11:30.822Z,98386.16
2023-11-03T17:13:58.311Z,98388.38
2023-11-03T17:16:28.687Z,98393.03
2023-11-03T17:18:56.135Z,98397.22
2023-11-03T17:21:26.126Z,98396.25
2023-11-03T17:23:56.386Z,98400.34
2023-11-03T17:26:24.665Z,98393.84
2023-11-03T17:28:52.831Z,98398.97
2023-11-03T17:31:20.915Z,98401.94
2023-11-03T17:33:49.117Z,98413.56
2023-11-03T17:36:16.621Z,98409.47
2023-11-03T17:38:43.889Z,98420.53
2023-11-03T17:41:11.320Z,98426.41
2023-11-03T17:43:38.552Z,98428.81
2023-11-03T17:46:06.443Z,98425.41
2023-11-03T17:48:35.338Z,98424.38
2023-11-03T17:51:05.522Z,98429.03
2023-11-03T17:53:34.839Z,98427.06
2023-11-03T17:56:03.311Z,98431.91
2023-11-03T17:58:30.675Z,98433.25
2023-11-03T18:00:59.463Z,98442.81
2023-11-03T18:03:27.996Z,98446.78
2023-11-03T18:05:55.372Z,98452.03
2023-11-03T18:08:22.749Z,98460.19
2023-11-03T18:10:50.155Z,98457.72
2023-11-03T18:13:17.577Z,98466.34
2023-11-03T18:15:44.878Z,98467.41
2023-11-03T18:18:12.219Z,98454.31
2023-11-03T18:20:41.606Z,98454.47
2023-11-03T18:23:09.086Z,98452.47
2023-11-03T18:25:37.006Z,98446.19
2023-11-03T18:28:04.578Z,98450.31
2023-11-03T18:30:33.935Z,98458.84
2023-11-03T18:33:02.109Z,98461.25
2023-11-03T18:35:29.528Z,98482.19
2023-11-03T18:37:57.150Z,98480.75
2023-11-03T18:40:28.352Z,98482.22
2023-11-03T18:42:56.064Z,98486.34
2023-11-03T18:45:24.688Z,98481.44
2023-11-03T18:47:52.004Z,98480.19
2023-11-03T18:52:52.125Z,98488.25
2023-11-03T18:56:14.137Z,98489.50
2023-11-03T18:58:47.668Z,98496.69
2023-11-03T19:02:09.170Z,98501.66
2023-11-03T19:08:42.331Z,98503.69
2023-11-03T19:11:09.882Z,98512.69
2023-11-03T19:13:37.023Z,98517.41
2023-11-03T19:16:04.741Z,98516.88
2023-11-03T19:18:37.498Z,98524.84
2023-11-03T19:21:06.053Z,98521.97
2023-11-03T19:23:35.765Z,98530.66
2023-11-03T19:26:03.160Z,98528.09
2023-11-03T19:28:33.275Z,98542.56
2023-11-03T19:31:03.632Z,98542.56
2023-11-03T19:33:32.582Z,98553.44
2023-11-03T19:36:01.076Z,98558.69
2023-11-03T19:38:28.611Z,98562.69
2023-11-03T19:40:56.619Z,98566.59
2023-11-03T19:43:24.103Z,98568.53
2023-11-03T19:45:51.505Z,98575.84
2023-11-03T19:48:19.100Z,98578.25
2023-11-03T19:50:47.193Z,98580.88
2023-11-03T19:53:17.097Z,98583.09
2023-11-03T19:55:45.572Z,98588.16
2023-11-03T19:58:13.929Z,98598.78
2023-11-03T20:00:43.999Z,98598.91
2023-11-03T20:03:11.390Z,98603.34
2023-11-03T20:05:39.663Z,98606.78
2023-11-03T20:08:10.201Z,98610.97
2023-11-03T20:10:37.729Z,98614.75
2023-11-03T20:13:05.423Z,98620.41
2023-11-03T20:15:33.165Z,98627.69
2023-11-03T20:18:01.270Z,98619.13
2023-11-03T20:20:29.332Z,98623.59
2023-11-03T20:22:57.805Z,98620.75
2023-11-03T20:25:31.132Z,98618.94
2023-11-03T20:27:59.211Z,98621.06
2023-11-03T20:30:26.461Z,98629.66
2023-11-03T20:32:54.758Z,98627.59
2023-11-03T20:35:23.170Z,98628.03
2023-11-03T20:37:50.568Z,98634.69
2023-11-03T20:40:18.471Z,98634.34
2023-11-03T20:42:45.759Z,98640.19
2023-11-03T20:45:15.458Z,98646.63
2023-11-03T20:47:48.093Z,98646.00
2023-11-03T20:50:19.003Z,98652.63
2023-11-03T20:52:46.144Z,98661.34
2023-11-03T20:55:13.992Z,98668.56
2023-11-03T20:57:42.386Z,98673.13
2023-11-03T21:00:10.604Z,98669.84
2023-11-03T21:02:38.649Z,98663.84
2023-11-03T21:05:06.543Z,98669.84
2023-11-03T21:07:34.400Z,98678.13
2023-11-03T21:10:02.232Z,98671.44
2023-11-03T21:12:32.830Z,98681.31
2023-11-03T21:15:00.194Z,98673.19
2023-11-03T21:17:27.633Z,98679.81
2023-11-03T21:19:55.933Z,98681.78
2023-11-03T21:22:23.234Z,98686.63
2023-11-03T21:24:50.739Z,98690.34
2023-11-03T21:27:18.126Z,98684.59
2023-11-03T21:29:45.372Z,98703.69
2023-11-03T21:32:12.556Z,98703.31
2023-11-03T21:34:40.199Z,98702.22
2023-11-03T21:37:07.569Z,98701.84
2023-11-03T21:39:34.935Z,98706.03
2023-11-03T21:42:02.180Z,98709.22
2023-11-03T21:44:30.539Z,98703.25
2023-11-03T21:46:58.053Z,98700.44
2023-11-03T21:49:26.127Z,98695.53
2023-11-03T21:51:55.252Z,98705.84
2023-11-03T21:54:22.401Z,98712.88
2023-11-03T21:56:49.649Z,98724.59
2023-11-03T21:59:17.303Z,98727.25
2023-11-03T22:01:45.046Z,98722.78
2023-11-03T22:04:12.316Z,98733.25
2023-11-03T22:06:39.745Z,98736.97
2023-11-03T22:09:09.924Z,98736.38
2023-11-03T22:11:37.950Z,98734.00
2023-11-03T22:14:05.275Z,98728.72
2023-11-03T22:16:32.784Z,98720.59
2023-11-03T22:19:00.188Z,98720.13
2023-11-03T22:21:27.497Z,98718.41
2023-11-03T22:23:55.641Z,98719.19
2023-11-03T22:26:32.374Z,98728.59
2023-11-03T22:29:04.319Z,98737.38
2023-11-03T22:31:31.630Z,98749.91
2023-11-03T22:33:59.508Z,98749.31
2023-11-03T22:36:28.022Z,98736.81
2023-11-03T22:38:55.310Z,98737.03
2023-11-03T22:41:23.749Z,98735.69
2023-11-03T22:43:52.153Z,98737.78
2023-11-03T22:46:19.376Z,98731.44
2023-11-03T22:48:46.840Z,98730.47
2023-11-03T22:51:16.112Z,98735.50
2023-11-03T22:53:47.817Z,98741.69
2023-11-03T22:56:33.540Z,98735.81
2023-11-03T22:59:02.279Z,98739.56
2023-11-03T23:01:29.586Z,98735.53
2023-11-03T23:03:57.185Z,98746.94
2023-11-03T23:06:25.010Z,98746.31
2023-11-03T23:08:52.341Z,98750.28
2023-11-03T23:11:20.032Z,98748.41
2023-11-03T23:13:49.031Z,98747.41
2023-11-03T23:16:16.319Z,98751.19
2023-11-03T23:18:43.879Z,98747.69
2023-11-03T23:21:12.991Z,98762.91
2023-11-03T23:23:41.483Z,98769.56
2023-11-03T23:26:08.715Z,98771.13
2023-11-03T23:28:35.930Z,98772.84
2023-11-03T23:31:03.294Z,98776.75
2023-11-03T23:33:32.671Z,98777.44
2023-11-03T23:36:00.258Z,98779.50
2023-11-03T23:38:27.575Z,98782.69
2023-11-03T23:40:54.837Z,98786.06
2023-11-03T23:43:22.132Z,98790.97
2023-11-03T23:45:49.715Z,98798.66
2023-11-03T23:48:21.221Z,98805.03
2023-11-03T23:50:48.983Z,98802.16
2023-11-03T23:53:16.228Z,98806.53
2023-11-03T23:55:43.495Z,98812.19
2023-11-03T23:58:10.785Z,98815.50
